Time;durP1;ratioP1;P1;durP2;ratioP2;P2;SDS_P1;SDS_P2;PMS_P1;PMS_P2;Temp;Humidity;BMP_temperature;BMP_pressure;BME280_temperature;BME280_humidity;BME280_pressure;Samples;Min_cycle;Max_cycle;Signal;HPM_P1;HPM_P2
2021/09/20 00:01:38;;;;;;;0.30;0.30;;;;;;;10.08;93.09;101543.00;5110606;28;20051;-88
2021/09/20 00:04:11;;;;;;;0.20;0.20;;;;;;;10.07;93.72;101549.50;5096896;28;20056;-90
2021/09/20 00:06:40;;;;;;;0.20;0.20;;;;;;;10.02;92.55;101538.56;5103827;28;20130;-89
2021/09/20 00:09:14;;;;;;;0.20;0.20;;;;;;;10.06;92.99;101545.13;5105997;28;20066;-89
2021/09/20 00:11:47;;;;;;;0.28;0.28;;;;;;;9.98;93.66;101543.66;5102030;28;20044;-89
2021/09/20 00:14:15;;;;;;;0.10;0.10;;;;;;;10.03;93.71;101541.00;5104930;28;20389;-89
2021/09/20 00:16:45;;;;;;;0.20;0.20;;;;;;;9.98;92.39;101543.66;5093794;28;20052;-90
2021/09/20 00:19:13;;;;;;;0.20;0.20;;;;;;;9.95;90.59;101535.22;5111965;28;20051;-89
2021/09/20 00:21:41;;;;;;;0.20;0.20;;;;;;;9.99;91.54;101545.31;5127168;27;20695;-89
2021/09/20 00:24:14;;;;;;;0.25;0.25;;;;;;;9.99;91.49;101545.31;5101402;28;20062;-89
2021/09/20 00:26:48;;;;;;;0.28;0.25;;;;;;;10.09;88.76;101536.44;5106038;28;20591;-90
2021/09/20 00:29:18;;;;;;;0.20;0.20;;;;;;;10.06;89.42;101542.41;5109335;28;20052;-88
2021/09/20 00:31:52;;;;;;;0.22;0.22;;;;;;;10.08;89.31;101550.31;5099460;28;20040;-88
2021/09/20 00:34:25;;;;;;;0.20;0.20;;;;;;;10.06;88.30;101544.31;5095714;28;20039;-89
2021/09/20 00:36:59;;;;;;;0.40;0.28;;;;;;;10.04;90.28;101544.56;5092052;28;20059;-89
2021/09/20 00:39:32;;;;;;;0.25;0.25;;;;;;;9.97;90.64;101536.59;5093734;28;20056;-88
2021/09/20 00:42:06;;;;;;;0.20;0.20;;;;;;;10.02;90.76;101544.00;5101174;28;20039;-89
2021/09/20 00:44:39;;;;;;;0.20;0.20;;;;;;;10.10;88.85;101540.81;5103138;28;20036;-89
2021/09/20 00:47:14;;;;;;;0.20;0.20;;;;;;;10.10;89.41;101537.28;5099191;28;20055;-88
2021/09/20 00:49:47;;;;;;;0.20;0.20;;;;;;;10.09;87.92;101524.75;5102904;28;20040;-90
2021/09/20 00:52:20;;;;;;;0.20;0.20;;;;;;;10.26;87.72;101549.97;5107037;28;20036;-89
2021/09/20 00:54:50;;;;;;;0.20;0.20;;;;;;;10.09;88.58;101538.34;5106063;28;20074;-89
2021/09/20 00:57:23;;;;;;;0.20;0.20;;;;;;;10.05;88.20;101543.47;5104796;28;20514;-90
2021/09/20 00:59:57;;;;;;;0.20;0.20;;;;;;;9.99;88.16;101539.06;5094275;28;20048;-89
2021/09/20 01:02:26;;;;;;;0.32;0.32;;;;;;;10.12;87.70;101541.41;5104854;28;20047;-88
2021/09/20 01:04:55;;;;;;;0.20;0.20;;;;;;;10.03;87.47;101543.72;5096631;28;20048;-87
2021/09/20 01:07:25;;;;;;;0.20;0.20;;;;;;;10.10;87.27;101535.38;5105941;28;20479;-84
2021/09/20 01:09:58;;;;;;;0.30;0.20;;;;;;;9.93;88.47;101548.22;5110985;28;20518;-83
2021/09/20 01:12:32;;;;;;;0.20;0.20;;;;;;;9.85;89.23;101544.88;5110219;28;20054;-83
2021/09/20 01:15:01;;;;;;;0.30;0.30;;;;;;;9.80;90.05;101546.72;5107108;28;20043;-82
2021/09/20 01:17:35;;;;;;;0.30;0.30;;;;;;;9.74;89.81;101550.47;5110354;28;20055;-83
2021/09/20 01:20:06;;;;;;;0.20;0.20;;;;;;;9.97;88.28;101541.19;5101616;28;20051;-83
2021/09/20 01:22:40;;;;;;;0.20;0.20;;;;;;;9.85;88.45;101539.44;5112258;28;20036;-83
2021/09/20 01:25:16;;;;;;;0.20;0.20;;;;;;;9.75;90.79;101536.63;5101518;28;20063;-84
2021/09/20 01:27:50;;;;;;;0.20;0.20;;;;;;;9.74;91.49;101542.31;5109124;28;20046;-83
2021/09/20 01:30:24;;;;;;;0.22;0.22;;;;;;;9.74;91.03;101555.91;5106616;28;20403;-83
2021/09/20 01:32:52;;;;;;;0.30;0.30;;;;;;;9.80;89.64;101550.25;5107823;28;20047;-82
2021/09/20 01:35:26;;;;;;;0.30;0.30;;;;;;;9.77;90.71;101544.53;5101528;28;20051;-84
2021/09/20 01:37:54;;;;;;;0.35;0.30;;;;;;;9.70;90.94;101544.69;5101333;28;20480;-83
2021/09/20 01:40:24;;;;;;;0.20;0.20;;;;;;;9.67;90.17;101551.47;5110802;28;20416;-82
2021/09/20 01:42:58;;;;;;;0.20;0.20;;;;;;;9.70;90.80;101552.84;5110441;28;20040;-83
2021/09/20 01:45:26;;;;;;;0.30;0.30;;;;;;;9.69;91.54;101543.91;5104411;28;20067;-82
2021/09/20 01:47:59;;;;;;;0.20;0.20;;;;;;;9.66;90.26;101547.09;5110375;28;20044;-80
2021/09/20 01:50:28;;;;;;;0.20;0.20;;;;;;;9.72;90.95;101549.88;5112138;28;20047;-83
2021/09/20 01:53:01;;;;;;;0.35;0.20;;;;;;;9.46;90.86;101516.94;5113100;28;20052;-83
2021/09/20 01:55:36;;;;;;;0.20;0.20;;;;;;;9.70;87.65;101514.81;5106410;28;20044;-82
2021/09/20 01:58:04;;;;;;;0.20;0.20;;;;;;;9.79;89.43;101545.06;5118149;27;20074;-82
2021/09/20 02:00:43;;;;;;;0.20;0.20;;;;;;;9.73;88.50;101533.31;5101783;28;20079;-84
2021/09/20 02:03:12;;;;;;;0.20;0.20;;;;;;;9.76;89.45;101548.31;5113940;28;20051;-83
2021/09/20 02:05:45;;;;;;;0.20;0.20;;;;;;;9.70;89.98;101547.44;5108193;28;20052;-82
2021/09/20 02:08:18;;;;;;;0.40;0.32;;;;;;;9.45;90.49;101505.25;5094508;28;20051;-82
2021/09/20 02:10:53;;;;;;;0.20;0.20;;;;;;;9.41;90.31;101514.16;5099258;28;20047;-82
2021/09/20 02:13:28;;;;;;;0.20;0.20;;;;;;;9.63;90.89;101550.31;5103285;28;20048;-82
2021/09/20 02:15:56;;;;;;;0.20;0.20;;;;;;;9.44;89.43;101498.16;5104088;28;20520;-83
2021/09/20 02:18:24;;;;;;;0.20;0.20;;;;;;;9.69;90.87;101541.19;5095765;28;20067;-83
2021/09/20 02:20:57;;;;;;;0.20;0.20;;;;;;;9.66;92.36;101538.13;5114085;28;20070;-83
2021/09/20 02:23:26;;;;;;;0.30;0.30;;;;;;;9.65;92.88;101545.47;5113170;28;20495;-84
2021/09/20 02:25:55;;;;;;;0.30;0.30;;;;;;;9.62;91.34;101540.53;5104020;28;20047;-82
2021/09/20 02:28:23;;;;;;;0.63;0.30;;;;;;;9.60;90.32;101536.41;5110403;28;20048;-82
2021/09/20 02:30:52;;;;;;;0.85;0.30;;;;;;;9.59;90.43;101541.03;5104338;28;20416;-83
2021/09/20 02:33:25;;;;;;;0.30;0.30;;;;;;;9.53;91.64;101533.91;5107371;28;20063;-82
2021/09/20 02:35:58;;;;;;;0.25;0.22;;;;;;;9.52;91.58;101537.69;5093585;28;20055;-84
2021/09/20 02:38:32;;;;;;;0.20;0.20;;;;;;;9.49;90.97;101536.28;5093634;28;20055;-83
2021/09/20 02:41:07;;;;;;;0.20;0.20;;;;;;;9.49;89.05;101533.56;5095817;28;20047;-83
2021/09/20 02:43:41;;;;;;;0.20;0.20;;;;;;;9.59;88.53;101532.06;5109553;28;20039;-83
2021/09/20 02:46:14;;;;;;;0.22;0.20;;;;;;;9.81;86.82;101532.88;5110387;28;20043;-83
2021/09/20 02:48:43;;;;;;;0.28;0.20;;;;;;;9.69;86.67;101529.47;5106818;28;20047;-83
2021/09/20 02:51:16;;;;;;;0.20;0.20;;;;;;;9.61;90.67;101546.22;5109205;28;20048;-83
2021/09/20 02:53:49;;;;;;;0.20;0.20;;;;;;;9.46;88.32;101533.25;5112093;28;20403;-84
2021/09/20 02:56:24;;;;;;;0.25;0.25;;;;;;;9.69;86.29;101524.03;5113529;28;20052;-83
2021/09/20 02:58:57;;;;;;;0.20;0.20;;;;;;;9.57;88.73;101550.50;5128902;27;20040;-84
2021/09/20 03:01:25;;;;;;;0.20;0.20;;;;;;;9.50;87.21;101539.81;5127508;27;20392;-83
2021/09/20 03:03:53;;;;;;;0.20;0.20;;;;;;;9.50;90.07;101537.09;5107694;28;20074;-83
2021/09/20 03:06:27;;;;;;;0.20;0.20;;;;;;;9.41;90.47;101539.44;5110574;28;20048;-82
2021/09/20 03:09:00;;;;;;;0.20;0.20;;;;;;;9.47;92.49;101551.19;5093029;28;20056;-83
2021/09/20 03:11:34;;;;;;;0.30;0.30;;;;;;;9.44;91.55;101544.34;5121447;27;20047;-83
2021/09/20 03:14:07;;;;;;;0.30;0.30;;;;;;;9.41;91.87;101541.34;5109829;28;20048;-83
2021/09/20 03:16:36;;;;;;;0.20;0.20;;;;;;;9.43;92.61;101552.75;5100990;28;20047;-83
2021/09/20 03:19:09;;;;;;;1.00;0.32;;;;;;;9.13;93.15;101516.78;5110525;28;20043;-82
2021/09/20 03:21:42;;;;;;;0.30;0.22;;;;;;;9.38;92.35;101561.69;5103790;28;20055;-82
2021/09/20 03:24:16;;;;;;;0.20;0.20;;;;;;;9.28;90.72;101548.78;5105239;28;20080;-83
2021/09/20 03:26:51;;;;;;;0.20;0.20;;;;;;;9.35;91.94;101568.44;5098443;28;20051;-83
2021/09/20 03:29:24;;;;;;;0.45;0.30;;;;;;;9.35;92.55;101563.00;5106173;28;20040;-83
2021/09/20 03:31:58;;;;;;;0.22;0.22;;;;;;;9.38;92.05;101567.09;5108825;28;20733;-84
2021/09/20 03:34:26;;;;;;;0.20;0.20;;;;;;;9.41;91.52;101563.88;5112339;28;20621;-83
2021/09/20 03:36:59;;;;;;;0.20;0.20;;;;;;;9.36;88.72;101561.94;5112703;28;20055;-82
2021/09/20 03:39:32;;;;;;;0.20;0.20;;;;;;;9.58;84.77;101568.47;5103082;28;20395;-82
2021/09/20 03:42:07;;;;;;;0.20;0.20;;;;;;;9.56;86.44;101555.13;5099762;28;20137;-83
2021/09/20 03:44:40;;;;;;;0.20;0.20;;;;;;;9.45;87.79;101558.78;5109299;28;20044;-83
2021/09/20 03:47:13;;;;;;;0.20;0.20;;;;;;;9.64;84.24;101565.56;5104546;28;20066;-83
2021/09/20 03:49:46;;;;;;;0.20;0.20;;;;;;;9.38;83.11;101542.66;5108367;28;20051;-85
2021/09/20 03:52:15;;;;;;;0.22;0.22;;;;;;;9.67;84.43;101558.81;5109846;27;20407;-83
2021/09/20 03:54:43;;;;;;;0.20;0.20;;;;;;;9.50;88.79;101570.53;5107971;28;20054;-83
2021/09/20 03:57:13;;;;;;;0.20;0.20;;;;;;;9.49;85.24;101574.31;5103128;28;20051;-82
2021/09/20 03:59:41;;;;;;;0.10;0.10;;;;;;;9.48;86.22;101569.97;5096837;28;20526;-83
2021/09/20 04:02:14;;;;;;;0.38;0.28;;;;;;;9.36;86.42;101574.66;5100099;28;20043;-82
2021/09/20 04:04:47;;;;;;;0.20;0.20;;;;;;;9.24;87.08;101550.34;5104455;28;20036;-83
2021/09/20 04:07:16;;;;;;;0.22;0.22;;;;;;;9.37;87.38;101576.31;5099473;28;20050;-83
2021/09/20 04:09:44;;;;;;;0.20;0.20;;;;;;;9.47;87.08;101581.06;5094814;28;20418;-83
2021/09/20 04:12:18;;;;;;;0.20;0.20;;;;;;;9.40;88.42;101580.44;5109658;28;20051;-82
2021/09/20 04:14:46;;;;;;;0.30;0.30;;;;;;;9.21;89.30;101564.44;5102588;28;20059;-82
2021/09/20 04:17:20;;;;;;;0.20;0.20;;;;;;;9.44;86.36;101585.13;5112066;28;20062;-83
2021/09/20 04:19:48;;;;;;;0.20;0.20;;;;;;;9.51;86.99;101583.06;5112270;28;20055;-82
2021/09/20 04:22:16;;;;;;;0.20;0.20;;;;;;;9.44;89.77;101587.03;5093977;28;20043;-82
2021/09/20 04:24:44;;;;;;;0.50;0.28;;;;;;;9.39;89.10;101589.66;5091995;28;20059;-83
2021/09/20 04:27:20;;;;;;;0.20;0.20;;;;;;;9.16;86.90;101567.06;5106529;28;20051;-82
2021/09/20 04:29:53;;;;;;;0.20;0.20;;;;;;;9.36;86.25;101596.41;5112024;28;20043;-83
2021/09/20 04:32:26;;;;;;;0.30;0.20;;;;;;;9.31;87.29;101586.28;5101373;28;20412;-83
2021/09/20 04:35:00;;;;;;;0.55;0.20;;;;;;;9.52;86.31;101578.44;5105870;28;20055;-82
2021/09/20 04:37:33;;;;;;;0.20;0.20;;;;;;;9.43;90.09;101604.38;5104613;28;20040;-84
2021/09/20 04:40:01;;;;;;;0.20;0.20;;;;;;;9.34;89.59;101604.00;5113517;28;20047;-83
2021/09/20 04:42:31;;;;;;;0.30;0.30;;;;;;;9.39;89.28;101605.94;5102870;28;20048;-84
2021/09/20 04:44:59;;;;;;;0.20;0.20;;;;;;;9.53;87.91;101607.28;5096094;28;20055;-83
2021/09/20 04:47:41;;;;;;;0.30;0.30;;;;;;;9.36;89.62;101608.13;5105875;28;20047;-83
2021/09/20 04:50:10;;;;;;;0.20;0.20;;;;;;;9.29;89.74;101604.72;5099043;28;20051;-82
2021/09/20 04:52:38;;;;;;;0.30;0.20;;;;;;;9.32;90.25;101608.84;5104410;28;20514;-82
2021/09/20 04:55:08;;;;;;;0.20;0.20;;;;;;;9.23;90.69;101623.94;5109305;28;20055;-83
2021/09/20 04:57:42;;;;;;;0.25;0.25;;;;;;;9.38;89.85;101616.00;5105448;28;20051;-85
2021/09/20 05:00:12;;;;;;;0.20;0.20;;;;;;;9.45;89.24;101605.78;5096416;28;20044;-82
2021/09/20 05:02:41;;;;;;;0.20;0.20;;;;;;;9.16;90.55;101580.63;5099457;28;20421;-83
2021/09/20 05:05:14;;;;;;;0.20;0.20;;;;;;;9.30;91.15;101614.53;5099662;28;20055;-83
2021/09/20 05:07:47;;;;;;;0.20;0.20;;;;;;;9.22;90.31;101608.69;5106352;28;20044;-82
2021/09/20 05:10:20;;;;;;;0.38;0.28;;;;;;;9.23;91.20;101613.06;5094130;28;20040;-83
2021/09/20 05:13:00;;;;;;;0.30;0.20;;;;;;;9.23;91.93;101615.78;5103401;28;20039;-83
2021/09/20 05:15:33;;;;;;;0.43;0.30;;;;;;;9.25;91.43;101621.78;5098596;28;20040;-83
2021/09/20 05:18:01;;;;;;;0.22;0.22;;;;;;;9.02;90.78;101596.44;5107809;28;20058;-83
2021/09/20 05:20:34;;;;;;;0.30;0.30;;;;;;;9.27;91.63;101628.59;5101610;28;20040;-83
2021/09/20 05:23:08;;;;;;;0.60;0.30;;;;;;;9.48;89.94;101628.91;5110868;28;20052;-83
2021/09/20 05:25:41;;;;;;;0.30;0.30;;;;;;;9.47;90.09;101629.97;5094415;28;20067;-83
2021/09/20 05:28:15;;;;;;;0.20;0.20;;;;;;;9.36;90.64;101631.72;5104949;28;20048;-82
2021/09/20 05:30:49;;;;;;;0.20;0.20;;;;;;;9.29;92.08;101631.88;5099204;28;20048;-83
2021/09/20 05:33:17;;;;;;;0.20;0.20;;;;;;;9.32;93.27;101641.44;5101341;28;20051;-83
2021/09/20 05:35:50;;;;;;;0.20;0.20;;;;;;;9.28;92.21;101630.25;5097983;28;20051;-83
2021/09/20 05:38:23;;;;;;;0.22;0.22;;;;;;;9.26;90.55;101637.81;5132596;27;20044;-82
2021/09/20 05:40:52;;;;;;;0.30;0.30;;;;;;;9.25;91.09;101638.88;5128732;27;20056;-82
2021/09/20 05:43:21;;;;;;;0.75;0.30;;;;;;;9.28;91.34;101635.69;5101478;28;20494;-83
2021/09/20 05:45:55;;;;;;;0.20;0.20;;;;;;;9.29;92.88;101641.94;5100599;28;20066;-82
2021/09/20 05:48:23;;;;;;;0.20;0.20;;;;;;;9.33;93.58;101641.19;5111035;28;20044;-83
2021/09/20 05:50:56;;;;;;;0.20;0.20;;;;;;;9.34;92.78;101634.69;5106505;28;20373;-84
2021/09/20 05:53:29;;;;;;;0.38;0.20;;;;;;;9.38;94.09;101634.19;5099952;28;20055;-82
2021/09/20 05:56:03;;;;;;;0.32;0.28;;;;;;;9.19;94.51;101608.09;5107306;28;20494;-82
2021/09/20 05:58:37;;;;;;;0.20;0.20;;;;;;;9.42;93.52;101638.06;5103465;28;20056;-82
2021/09/20 06:01:10;;;;;;;0.20;0.20;;;;;;;9.45;94.14;101654.69;5100301;28;20138;-82
2021/09/20 06:03:44;;;;;;;0.20;0.20;;;;;;;9.87;88.63;101653.38;5099745;28;20423;-82
2021/09/20 06:06:17;;;;;;;0.28;0.20;;;;;;;9.83;88.47;101650.38;5098027;28;20055;-82
2021/09/20 06:08:50;;;;;;;0.20;0.20;;;;;;;9.69;89.21;101651.78;5095033;28;20397;-82
2021/09/20 06:12:13;;;;;;;0.20;0.20;;;;;;;9.61;89.38;101650.31;5103944;28;20051;-84
2021/09/20 06:14:48;;;;;;;0.20;0.20;;;;;;;9.76;87.81;101646.97;5113822;28;20054;-82
2021/09/20 06:17:21;;;;;;;0.20;0.20;;;;;;;9.90;86.31;101654.78;5105313;28;20043;-83
2021/09/20 06:19:56;;;;;;;0.20;0.20;;;;;;;9.75;88.08;101663.53;5116119;28;20040;-82
2021/09/20 06:22:41;;;;;;;0.20;0.20;;;;;;;9.60;87.54;101662.25;5110961;28;20052;-83
2021/09/20 06:25:14;;;;;;;0.20;0.20;;;;;;;9.57;90.25;101657.31;5106066;28;20040;-82
2021/09/20 06:27:48;;;;;;;0.20;0.20;;;;;;;9.65;88.99;101656.91;5107780;28;20044;-82
2021/09/20 06:30:26;;;;;;;0.30;0.30;;;;;;;9.62;88.49;101662.81;5114217;28;20047;-83
2021/09/20 06:32:59;;;;;;;0.20;0.20;;;;;;;9.61;88.01;101654.91;5110363;28;20040;-83
2021/09/20 06:36:02;;;;;;;0.20;0.20;;;;;;;9.69;89.61;101655.34;5104072;28;20503;-82
2021/09/20 06:38:35;;;;;;;0.30;0.30;;;;;;;9.87;88.48;101654.22;5101506;28;20052;-83
2021/09/20 06:41:08;;;;;;;0.20;0.20;;;;;;;9.75;88.67;101653.50;5099837;28;20055;-81
2021/09/20 06:43:41;;;;;;;0.20;0.20;;;;;;;9.78;88.49;101661.16;5097764;28;20051;-80
2021/09/20 06:46:17;;;;;;;0.30;0.30;;;;;;;9.85;89.23;101652.81;5103135;28;20043;-83
2021/09/20 06:48:50;;;;;;;0.20;0.20;;;;;;;9.77;88.94;101654.06;5108539;28;20063;-82
2021/09/20 06:51:18;;;;;;;0.22;0.22;;;;;;;9.84;88.65;101659.31;5103841;28;20052;-82
2021/09/20 06:53:51;;;;;;;0.30;0.20;;;;;;;9.85;89.12;101653.63;5105939;28;20048;-82
2021/09/20 06:56:25;;;;;;;0.20;0.20;;;;;;;9.92;90.22;101650.75;5102893;28;20472;-81
2021/09/20 06:58:58;;;;;;;0.32;0.30;;;;;;;9.98;89.14;101648.91;5100211;28;20055;-83
2021/09/20 07:02:26;;;;;;;0.30;0.30;;;;;;;10.07;90.91;101644.69;5107248;28;20040;-81
2021/09/20 07:05:02;;;;;;;0.68;0.30;;;;;;;10.09;91.88;101647.97;5103932;28;20058;-86
2021/09/20 07:07:36;;;;;;;0.20;0.20;;;;;;;10.14;87.87;101647.22;5101123;28;20619;-83
2021/09/20 07:10:09;;;;;;;0.40;0.30;;;;;;;10.62;86.04;101664.69;5101426;28;20063;-83
2021/09/20 07:12:37;;;;;;;0.25;0.25;;;;;;;10.64;85.50;101664.41;5101558;28;20056;-83
2021/09/20 07:15:15;;;;;;;0.20;0.20;;;;;;;10.57;86.69;101663.81;5092919;28;20495;-83
2021/09/20 07:17:48;;;;;;;0.30;0.30;;;;;;;10.65;86.62;101669.59;5092375;28;20067;-84
2021/09/20 07:20:22;;;;;;;0.30;0.30;;;;;;;10.61;86.66;101659.50;5110288;27;20522;-86
2021/09/20 07:22:52;;;;;;;0.20;0.20;;;;;;;10.51;87.83;101671.09;5094887;28;20046;-82
2021/09/20 07:25:20;;;;;;;0.28;0.28;;;;;;;10.88;85.28;101673.94;5095295;28;20056;-80
2021/09/20 07:27:58;;;;;;;0.20;0.20;;;;;;;10.80;87.97;101673.53;5095799;28;20576;-82
2021/09/20 07:30:31;;;;;;;0.30;0.30;;;;;;;10.82;87.41;101672.22;5094363;28;20066;-82
2021/09/20 07:33:04;;;;;;;0.20;0.20;;;;;;;10.80;86.82;101681.72;5096896;28;20050;-82
2021/09/20 07:35:38;;;;;;;0.20;0.20;;;;;;;10.88;86.82;101682.09;5096580;28;20051;-83
2021/09/20 07:38:12;;;;;;;0.20;0.20;;;;;;;10.85;86.27;101688.06;5095656;28;20069;-84
2021/09/20 07:40:40;;;;;;;0.20;0.20;;;;;;;10.83;85.72;101679.31;5098786;28;20055;-83
2021/09/20 07:43:14;;;;;;;0.20;0.20;;;;;;;10.98;82.82;101681.38;5095593;28;20055;-82
2021/09/20 07:45:46;;;;;;;0.30;0.30;;;;;;;11.05;84.30;101679.25;5102725;28;20056;-82
2021/09/20 07:48:19;;;;;;;0.50;0.20;;;;;;;10.98;84.19;101686.81;5102796;28;20066;-81
2021/09/20 07:50:59;;;;;;;0.20;0.20;;;;;;;11.21;80.70;101676.66;5102606;28;20047;-85
2021/09/20 07:53:37;;;;;;;0.20;0.20;;;;;;;11.17;83.69;101686.44;5095748;28;20050;-82
2021/09/20 07:56:11;;;;;;;0.45;0.30;;;;;;;11.10;85.54;101683.91;5094299;28;20067;-82
2021/09/20 07:58:43;;;;;;;0.25;0.25;;;;;;;11.26;83.72;101694.97;5096681;28;20066;-83
2021/09/20 08:02:02;;;;;;;0.43;0.40;;;;;;;11.22;85.86;101697.38;5096821;28;20055;-84
2021/09/20 08:04:35;;;;;;;0.30;0.30;;;;;;;11.17;86.65;101695.44;5094269;28;20549;-82
2021/09/20 08:07:10;;;;;;;0.30;0.30;;;;;;;11.24;85.57;101700.66;5099576;28;20051;-83
2021/09/20 08:09:38;;;;;;;0.30;0.30;;;;;;;11.27;87.56;101700.16;5093819;28;20062;-82
2021/09/20 08:12:06;;;;;;;0.68;0.30;;;;;;;11.27;83.95;101697.44;5090612;28;20495;-84
2021/09/20 08:14:41;;;;;;;0.20;0.20;;;;;;;11.32;84.37;101708.34;5094720;28;20047;-83
2021/09/20 08:17:14;;;;;;;0.30;0.30;;;;;;;11.36;84.15;101703.22;5089671;28;21406;-82
2021/09/20 08:19:42;;;;;;;0.20;0.20;;;;;;;11.31;85.74;101697.72;5091477;28;20059;-86
2021/09/20 08:22:12;;;;;;;0.30;0.20;;;;;;;11.46;87.87;101710.66;5094713;28;20046;-82
2021/09/20 08:24:45;;;;;;;0.20;0.20;;;;;;;11.64;84.63;101706.69;5092566;28;20056;-82
2021/09/20 08:27:15;;;;;;;1.35;0.43;;;;;;;11.55;86.08;101707.19;5097868;28;20047;-82
2021/09/20 08:29:48;;;;;;;0.47;0.30;;;;;;;11.62;85.69;101706.16;5098423;28;20055;-82
2021/09/20 08:32:21;;;;;;;0.30;0.30;;;;;;;11.75;82.99;101708.41;5093518;28;20066;-86
2021/09/20 08:34:50;;;;;;;0.93;0.35;;;;;;;11.83;82.22;101710.63;5090727;28;20055;-85
2021/09/20 08:37:25;;;;;;;0.20;0.20;;;;;;;11.74;81.94;101710.31;5092317;28;20055;-82
2021/09/20 08:39:58;;;;;;;0.30;0.30;;;;;;;11.77;83.98;101719.06;5096168;28;20062;-83
2021/09/20 08:42:41;;;;;;;0.32;0.28;;;;;;;12.02;79.46;101715.72;5088055;28;20062;-84
2021/09/20 08:45:18;;;;;;;0.30;0.30;;;;;;;11.93;80.73;101722.72;5093058;28;20520;-85
2021/09/20 08:47:49;;;;;;;0.20;0.20;;;;;;;11.82;81.98;101721.81;5087336;28;20063;-84
2021/09/20 08:50:27;;;;;;;0.22;0.22;;;;;;;11.85;82.04;101724.03;5092738;28;20043;-83
2021/09/20 08:53:03;;;;;;;;;;;;;;;11.84;82.26;101722.38;5087108;28;20066;-84
2021/09/20 08:55:40;;;;;;;0.70;0.32;;;;;;;11.90;82.58;101716.72;5091112;28;19928;-82
2021/09/20 08:58:16;;;;;;;0.20;0.20;;;;;;;12.10;81.52;101722.56;5087189;28;20081;-86
2021/09/20 09:00:50;;;;;;;0.57;0.30;;;;;;;12.31;79.15;101727.03;5088366;28;20044;-84
2021/09/20 09:03:29;;;;;;;0.30;0.30;;;;;;;12.44;78.14;101714.81;5097634;28;20048;-82
2021/09/20 09:06:03;;;;;;;0.80;0.40;;;;;;;12.29;80.86;101723.78;5095700;28;20055;-82
2021/09/20 09:08:41;;;;;;;0.20;0.20;;;;;;;12.37;78.67;101704.16;5088017;28;20415;-81
2021/09/20 09:11:16;;;;;;;0.30;0.30;;;;;;;12.30;79.01;101721.84;5087300;28;20055;-87
2021/09/20 09:13:49;;;;;;;0.20;0.20;;;;;;;12.38;79.93;101735.00;5087524;28;20051;-82
2021/09/20 09:16:26;;;;;;;0.20;0.20;;;;;;;12.44;77.05;101714.00;5099953;28;20693;-82
2021/09/20 09:19:05;;;;;;;0.30;0.30;;;;;;;12.40;76.81;101697.31;5094667;28;20060;-84
2021/09/20 09:21:45;;;;;;;0.90;0.30;;;;;;;12.55;79.72;101727.44;5103580;28;20055;-86
2021/09/20 09:24:20;;;;;;;0.20;0.20;;;;;;;12.79;79.16;101729.69;5089236;28;20062;-82
2021/09/20 09:26:57;;;;;;;0.38;0.30;;;;;;;12.75;78.35;101721.19;5085804;28;20625;-83
2021/09/20 09:29:31;;;;;;;0.23;0.20;;;;;;;12.86;78.62;101727.50;5088040;28;20059;-85
2021/09/20 09:32:01;;;;;;;0.20;0.20;;;;;;;12.88;77.84;101724.50;5091919;28;20051;-82
2021/09/20 09:34:35;;;;;;;0.38;0.30;;;;;;;12.81;75.30;101722.03;5095832;28;20048;-84
2021/09/20 09:37:09;;;;;;;0.22;0.22;;;;;;;12.81;78.71;101724.75;5087503;28;20059;-83
2021/09/20 09:39:46;;;;;;;0.30;0.30;;;;;;;12.96;78.48;101729.44;5086466;28;20051;-85
2021/09/20 09:42:27;;;;;;;0.25;0.25;;;;;;;13.00;78.53;101719.63;5085655;28;20069;-83
2021/09/20 09:45:25;;;;;;;0.40;0.30;;;;;;;13.16;74.55;101725.94;5092118;28;20039;-86
2021/09/20 09:48:11;;;;;;;0.22;0.22;;;;;;;13.23;77.76;101723.75;5090152;28;20058;-84
2021/09/20 09:50:45;;;;;;;0.52;0.30;;;;;;;13.18;77.42;101729.22;5084923;28;20059;-85
2021/09/20 09:53:28;;;;;;;0.20;0.20;;;;;;;13.20;73.74;101729.78;5084778;28;20048;-82
2021/09/20 09:56:17;;;;;;;0.20;0.20;;;;;;;13.22;75.85;101724.84;5088163;28;20054;-83
2021/09/20 09:58:54;;;;;;;0.20;0.20;;;;;;;13.17;70.54;101715.81;5092479;28;20051;-83
2021/09/20 10:01:37;;;;;;;0.30;0.20;;;;;;;13.11;74.30;101728.66;5086915;28;20051;-84
2021/09/20 10:04:09;;;;;;;0.35;0.30;;;;;;;13.13;73.73;101712.78;5082357;28;20059;-83
2021/09/20 10:06:51;;;;;;;0.30;0.22;;;;;;;13.23;75.28;101718.28;5084049;28;20055;-82
2021/09/20 10:09:26;;;;;;;0.20;0.20;;;;;;;13.39;73.61;101715.59;5085986;28;20078;-81
2021/09/20 10:12:02;;;;;;;0.30;0.30;;;;;;;13.48;72.92;101718.56;5083718;28;20047;-84
2021/09/20 10:14:30;;;;;;;0.28;0.28;;;;;;;13.32;72.95;101715.81;5087735;28;20051;-82
2021/09/20 10:17:02;;;;;;;0.25;0.25;;;;;;;13.32;73.76;101709.53;5094741;28;20826;-85
2021/09/20 10:19:35;;;;;;;0.20;0.20;;;;;;;13.48;74.01;101713.94;5095350;28;20058;-86
2021/09/20 10:22:08;;;;;;;0.20;0.20;;;;;;;13.63;73.33;101713.13;5090446;28;20044;-85
2021/09/20 10:24:43;;;;;;;0.30;0.30;;;;;;;13.57;71.32;101716.94;5091080;28;20047;-84
2021/09/20 10:27:20;;;;;;;0.20;0.20;;;;;;;13.56;74.76;101698.88;5093409;28;20047;-82
2021/09/20 10:29:55;;;;;;;0.20;0.20;;;;;;;13.57;75.27;101711.47;5091956;28;20067;-81
2021/09/20 10:32:27;;;;;;;0.30;0.30;;;;;;;13.53;73.05;101710.38;5110456;27;20070;-84
2021/09/20 10:35:23;;;;;;;0.30;0.30;;;;;;;13.53;73.44;101710.38;5090742;28;20827;-85
2021/09/20 10:38:48;;;;;;;0.20;0.20;;;;;;;13.54;75.95;101712.84;5094209;28;20054;-83
2021/09/20 10:41:24;;;;;;;0.57;0.20;;;;;;;13.53;72.67;101692.03;5089136;28;20056;-81
2021/09/20 10:44:09;;;;;;;0.30;0.30;;;;;;;13.52;72.80;101708.72;5092902;28;20050;-84
2021/09/20 10:46:48;;;;;;;0.20;0.20;;;;;;;13.54;72.05;101706.56;5089332;28;20063;-82
2021/09/20 10:49:21;;;;;;;0.30;0.30;;;;;;;13.40;73.09;101701.63;5089661;28;20519;-82
2021/09/20 10:52:03;;;;;;;0.20;0.20;;;;;;;13.67;73.83;101714.22;5091672;28;20712;-84
2021/09/20 10:55:03;;;;;;;0.20;0.20;;;;;;;13.56;74.12;101716.13;5095893;28;20839;-82
2021/09/20 10:57:37;;;;;;;0.30;0.30;;;;;;;13.42;73.62;101709.56;5090027;28;20424;-83
2021/09/20 11:00:25;;;;;;;0.22;0.22;;;;;;;13.39;74.83;101710.91;5097430;28;20052;-82
2021/09/20 11:02:53;;;;;;;0.13;0.13;;;;;;;13.51;75.60;101718.06;5087933;28;20056;-81
2021/09/20 11:05:30;;;;;;;0.20;0.20;;;;;;;13.46;73.91;101710.66;5088814;28;20051;-80
2021/09/20 11:07:58;;;;;;;0.20;0.20;;;;;;;13.46;73.04;101715.31;5091515;28;20062;-84
2021/09/20 11:10:36;;;;;;;0.20;0.20;;;;;;;13.38;71.96;101709.31;5090853;28;20077;-84
2021/09/20 11:13:10;;;;;;;0.20;0.20;;;;;;;13.53;72.11;101707.66;5090693;28;20082;-86
2021/09/20 11:15:41;;;;;;;0.20;0.20;;;;;;;13.60;73.41;101700.81;5091429;28;20062;-84
2021/09/20 11:18:32;;;;;;;0.30;0.30;;;;;;;13.74;72.96;101702.97;5090194;28;20051;-82
2021/09/20 11:21:07;;;;;;;0.20;0.20;;;;;;;13.49;72.63;101693.72;5095971;28;20510;-82
2021/09/20 11:23:46;;;;;;;0.30;0.30;;;;;;;13.53;72.46;101696.72;5092791;28;20052;-85
2021/09/20 11:26:24;;;;;;;0.20;0.20;;;;;;;13.48;71.89;101697.53;5087601;28;20052;-83
2021/09/20 11:28:54;;;;;;;0.10;0.10;;;;;;;13.57;73.75;101704.06;5106846;27;20522;-86
2021/09/20 11:31:33;;;;;;;0.25;0.20;;;;;;;13.45;73.26;101706.31;5089555;28;20059;-83
2021/09/20 11:34:11;;;;;;;0.00;0.00;;;;;;;13.52;71.10;101698.63;5094091;28;20044;-84
2021/09/20 11:36:44;;;;;;;0.20;0.20;;;;;;;13.54;72.85;101699.16;5087611;28;20060;-82
2021/09/20 11:39:20;;;;;;;0.10;0.10;;;;;;;13.40;70.86;101689.88;5088353;28;20063;-82
2021/09/20 11:41:57;;;;;;;0.20;0.20;;;;;;;13.43;72.15;101686.59;5095021;28;20040;-83
2021/09/20 11:44:30;;;;;;;0.20;0.20;;;;;;;13.35;72.67;101700.78;5110485;27;20066;-87
2021/09/20 11:47:04;;;;;;;0.20;0.20;;;;;;;13.44;71.32;101680.84;5089592;28;20044;-83
2021/09/20 11:49:39;;;;;;;0.70;0.40;;;;;;;13.55;73.13;101711.75;5090783;28;20562;-87
2021/09/20 11:52:13;;;;;;;0.32;0.20;;;;;;;13.44;73.15;101701.91;5093777;28;21399;-83
2021/09/20 11:54:52;;;;;;;0.30;0.30;;;;;;;13.46;72.79;101707.13;5103004;28;20074;-83
2021/09/20 11:57:24;;;;;;;0.20;0.20;;;;;;;13.35;73.40;101698.06;5091219;28;20054;-84
2021/09/20 12:00:04;;;;;;;0.30;0.30;;;;;;;13.52;72.58;101704.09;5100847;27;20792;-83
2021/09/20 12:02:45;;;;;;;0.20;0.20;;;;;;;13.55;72.41;101709.00;5093547;28;20546;-83